Time;durP1;ratioP1;P1;durP2;ratioP2;P2;SDS_P1;SDS_P2;PMS_P1;PMS_P2;Temp;Humidity;BMP_temperature;BMP_pressure;BME280_temperature;BME280_humidity;BME280_pressure;Samples;Min_cycle;Max_cycle;Signal;HPM_P1;HPM_P2
2021/05/12 04:48:29;;;;;;;;;16.75;15.75;;;;;21.71;41.61;97866.97;6237218;27;98176;-62
2021/05/12 04:51:33;;;;;;;;;16.60;16.00;;;;;21.81;40.82;97871.34;6244587;27;124831;-65
2021/05/12 04:54:36;;;;;;;;;15.00;13.80;;;;;21.89;40.66;97865.88;6241279;27;125690;-65
2021/05/12 04:57:39;;;;;;;;;16.00;14.00;;;;;21.48;40.30;97794.13;6237755;27;126806;-65
2021/05/12 05:00:42;;;;;;;;;16.00;14.25;;;;;21.99;39.93;97875.78;6257385;27;125251;-63
2021/05/12 05:03:46;;;;;;;;;18.00;15.25;;;;;22.10;39.90;97863.34;6234937;27;126132;-63
2021/05/12 05:06:48;;;;;;;;;16.00;16.00;;;;;22.22;39.54;97855.31;6243622;27;125119;-63
2021/05/12 05:09:51;;;;;;;;;16.00;15.40;;;;;22.31;39.26;97858.84;6231180;27;127371;-65
2021/05/12 05:12:54;;;;;;;;;18.00;17.00;;;;;22.42;39.58;97857.41;6237189;27;125138;-65
2021/05/12 05:15:59;;;;;;;;;20.00;19.00;;;;;22.54;39.29;97858.69;6255079;27;125287;-65
2021/05/12 05:19:03;;;;;;;;;20.00;18.00;;;;;22.64;39.22;97861.91;6216394;27;124063;-63
2021/05/12 05:22:06;;;;;;;;;17.00;16.00;;;;;22.77;38.90;97862.91;6242371;27;126113;-62
2021/05/12 05:25:10;;;;;;;;;18.00;16.00;;;;;22.81;39.24;97859.19;6247994;27;124436;-63
2021/05/12 05:28:13;;;;;;;;;20.00;18.00;;;;;22.93;39.13;97854.94;6248305;27;126152;-60
2021/05/12 05:31:15;;;;;;;;;17.00;15.80;;;;;23.07;38.64;97861.03;6253182;27;126487;-65
2021/05/12 05:34:37;;;;;;;;;17.00;16.00;;;;;23.10;38.77;97854.91;6257427;27;126488;-62
2021/05/12 05:37:59;;;;;;;;;16.00;15.20;;;;;23.15;38.32;97854.72;6237302;27;124614;-62
2021/05/12 05:41:20;;;;;;;;;16.00;15.00;;;;;23.24;38.48;97852.75;6257517;27;126334;-60
2021/05/12 05:44:42;;;;;;;;;15.00;14.00;;;;;23.32;38.40;97858.22;6258829;27;126030;-61
2021/05/12 05:48:04;;;;;;;;;17.00;15.00;;;;;23.35;38.05;97855.94;6260123;27;123880;-61
2021/05/12 05:51:26;;;;;;;;;17.00;16.00;;;;;23.44;38.51;97849.28;6256471;27;125874;-60
2021/05/12 05:54:52;;;;;;;;;15.00;14.00;;;;;23.54;38.74;97861.88;6229895;27;126889;-61
2021/05/12 05:58:14;;;;;;;;;14.40;13.80;;;;;23.73;38.40;97859.50;6258622;27;126349;-61
2021/05/12 06:01:36;;;;;;;;;15.00;14.00;;;;;23.83;37.34;97850.88;6259496;27;125879;-61
2021/05/12 06:04:38;;;;;;;;;16.40;15.40;;;;;23.96;37.14;97858.06;6238087;27;124955;-61
2021/05/12 06:08:01;;;;;;;;;16.00;15.40;;;;;23.93;36.75;97849.69;6258702;27;124860;-61
2021/05/12 06:11:43;;;;;;;;;15.60;14.00;;;;;24.12;37.47;97853.59;6210913;27;126300;-61
2021/05/12 06:15:06;;;;;;;;;14.60;13.00;;;;;24.22;36.69;97860.69;6257020;27;126471;-61
2021/05/12 06:18:39;;;;;;;;;16.00;15.00;;;;;24.33;37.27;97853.63;6252593;27;124687;-61
2021/05/12 06:22:00;;;;;;;;;15.00;14.00;;;;;24.44;37.00;97859.53;6253536;27;126482;-61
2021/05/12 06:25:22;;;;;;;;;15.00;12.00;;;;;24.59;36.75;97856.97;6247144;27;124918;-60
2021/05/12 06:28:47;;;;;;;;;14.00;13.00;;;;;24.75;36.45;97859.09;6257813;27;126358;-61
2021/05/12 06:32:08;;;;;;;;;16.00;14.00;;;;;24.87;36.07;97851.72;6249745;27;124613;-60
2021/05/12 06:35:31;;;;;;;;;17.60;15.60;;;;;24.98;36.41;97860.34;6246320;27;124652;-61
2021/05/12 06:38:53;;;;;;;;;13.20;12.20;;;;;25.18;36.62;97855.91;6251320;27;125758;-61
2021/05/12 06:41:56;;;;;;;;;17.20;16.00;;;;;25.10;35.87;97854.88;6238259;27;124319;-61
2021/05/12 06:44:59;;;;;;;;;13.60;13.60;;;;;25.26;36.41;97846.75;6254050;27;124984;-61
2021/05/12 06:48:03;;;;;;;;;14.60;13.00;;;;;25.40;35.70;97853.56;6237526;27;124989;-60
2021/05/12 06:51:06;;;;;;;;;13.60;13.00;;;;;25.64;35.54;97840.94;6252052;27;124955;-60
2021/05/12 06:54:09;;;;;;;;;15.00;14.00;;;;;25.81;35.69;97843.44;6251602;27;125246;-60
2021/05/12 06:57:13;;;;;;;;;14.00;13.75;;;;;26.11;34.51;97844.78;6253123;27;126192;-60
2021/05/12 07:00:16;;;;;;;;;11.80;11.80;;;;;26.31;34.49;97845.81;6236834;27;123622;-60
2021/05/12 07:03:25;;;;;;;;;14.00;13.00;;;;;26.55;33.79;97836.63;6254067;27;125056;-61
2021/05/12 07:06:27;;;;;;;;;11.40;10.60;;;;;26.74;33.61;97840.34;6253101;27;125195;-60
2021/05/12 07:09:30;;;;;;;;;13.00;11.60;;;;;26.87;32.96;97843.09;6258983;27;125166;-60
2021/05/12 07:12:33;;;;;;;;;11.50;11.50;;;;;27.05;32.72;97838.84;6254646;27;125140;-60
2021/05/12 07:15:36;;;;;;;;;13.00;12.80;;;;;27.17;32.86;97830.47;6253872;27;126012;-60
2021/05/12 07:18:39;;;;;;;;;14.20;13.00;;;;;27.43;32.72;97827.16;6250190;27;125138;-62
2021/05/12 07:21:42;;;;;;;;;12.50;11.00;;;;;27.63;32.30;97830.84;6257813;27;125211;-62
2021/05/12 07:24:45;;;;;;;;;11.00;11.00;;;;;27.80;31.60;97825.75;6239597;27;124815;-61
2021/05/12 07:27:49;;;;;;;;;14.00;12.00;;;;;27.95;31.11;97819.34;6255919;27;126279;-60
2021/05/12 07:30:52;;;;;;;;;11.00;11.00;;;;;27.93;30.70;97826.44;6256638;27;126645;-60
2021/05/12 07:34:15;;;;;;;;;11.00;10.00;;;;;28.01;31.86;97811.56;6256055;27;126026;-60
2021/05/12 07:37:18;;;;;;;;;13.00;13.00;;;;;27.95;31.59;97810.25;6235548;27;124357;-60
2021/05/12 07:40:21;;;;;;;;;11.60;11.00;;;;;28.04;31.63;97793.44;6239385;27;126153;-60
2021/05/12 07:43:25;;;;;;;;;11.00;10.00;;;;;28.32;31.16;97810.69;6258070;27;126983;-60
2021/05/12 07:46:27;;;;;;;;;11.40;11.40;;;;;28.43;31.37;97815.31;6249595;27;126151;-60
2021/05/12 07:49:30;;;;;;;;;13.00;10.00;;;;;28.76;31.06;97812.03;6238181;27;124943;-60
2021/05/12 07:52:33;;;;;;;;;12.00;12.00;;;;;28.98;30.17;97810.44;6257943;27;124401;-60
2021/05/12 07:55:36;;;;;;;;;13.00;12.00;;;;;29.17;30.15;97804.88;6255505;27;126243;-61
2021/05/12 07:58:40;;;;;;;;;14.00;12.40;;;;;29.24;29.87;97813.28;6239658;27;124998;-61
2021/05/12 08:01:44;;;;;;;;;11.80;11.00;;;;;29.38;30.35;97806.41;6221887;27;125074;-61
2021/05/12 08:04:47;;;;;;;;;12.00;11.00;;;;;29.54;30.03;97804.28;6239851;27;124695;-60
2021/05/12 08:07:50;;;;;;;;;12.00;12.00;;;;;29.48;29.53;97794.69;6239115;27;125110;-60
2021/05/12 08:10:53;;;;;;;;;11.00;10.00;;;;;29.81;30.22;97800.34;6255135;27;127308;-60
2021/05/12 08:13:57;;;;;;;;;11.00;10.00;;;;;29.88;28.57;97806.03;6249432;27;124311;-60
2021/05/12 08:16:59;;;;;;;;;11.00;10.00;;;;;30.23;29.92;97802.97;6239574;27;126242;-60
2021/05/12 08:20:03;;;;;;;;;12.00;11.00;;;;;30.45;28.21;97809.59;6253827;27;126340;-60
2021/05/12 08:23:06;;;;;;;;;11.00;11.00;;;;;30.57;28.26;97801.03;6254969;27;126514;-60
2021/05/12 08:26:10;;;;;;;;;11.00;9.20;;;;;30.77;29.05;97801.66;6257304;27;126930;-60
2021/05/12 08:29:16;;;;;;;;;11.00;10.00;;;;;30.94;26.74;97803.81;6256914;27;124557;-60
2021/05/12 08:32:19;;;;;;;;;11.00;10.00;;;;;30.88;27.92;97795.06;6257815;27;124904;-61
2021/05/12 08:35:22;;;;;;;;;11.80;9.00;;;;;31.06;27.35;97789.69;6237503;27;126704;-60
2021/05/12 08:38:25;;;;;;;;;12.00;11.00;;;;;31.22;27.28;97792.22;6238608;27;125575;-61
2021/05/12 08:41:28;;;;;;;;;12.00;11.00;;;;;31.19;27.56;97787.41;6238386;27;123868;-61
2021/05/12 08:44:34;;;;;;;;;10.00;10.00;;;;;31.47;27.01;97770.97;6257780;27;124626;-61
2021/05/12 08:47:38;;;;;;;;;11.00;10.00;;;;;31.80;27.73;97772.81;6256945;27;125411;-60
2021/05/12 08:50:42;;;;;;;;;11.00;10.00;;;;;32.04;25.99;97774.13;6257080;27;125813;-60
2021/05/12 08:53:47;;;;;;;;;10.60;10.60;;;;;32.27;26.75;97768.28;6257767;27;126297;-61
2021/05/12 08:56:49;;;;;;;;;11.50;11.50;;;;;32.50;26.40;97768.81;6259123;27;124770;-61
2021/05/12 08:59:54;;;;;;;;;9.00;9.00;;;;;32.84;26.82;97758.16;6262420;27;125663;-60
2021/05/12 09:02:58;;;;;;;;;10.00;9.00;;;;;33.03;24.83;97755.00;6261994;27;124972;-60
2021/05/12 09:06:01;;;;;;;;;10.40;9.80;;;;;32.99;26.03;97748.59;6247723;27;126051;-61
2021/05/12 09:09:06;;;;;;;;;11.00;10.00;;;;;33.14;25.34;97747.41;6261255;27;125184;-60
2021/05/12 09:12:12;;;;;;;;;9.00;8.60;;;;;33.38;24.51;97757.06;6261446;27;124972;-61
2021/05/12 09:15:18;;;;;;;;;9.00;9.00;;;;;33.64;24.62;97750.22;6260959;27;124143;-60
2021/05/12 09:18:28;;;;;;;;;10.00;9.40;;;;;33.73;24.13;97745.84;6245079;27;125742;-61
2021/05/12 09:21:46;;;;;;;;;9.00;9.00;;;;;33.99;23.84;97741.78;6247861;27;126629;-61
2021/05/12 09:25:05;;;;;;;;;9.00;9.00;;;;;34.01;23.49;97725.44;6242045;27;125684;-61
2021/05/12 09:28:12;;;;;;;;;9.00;9.00;;;;;34.28;23.88;97739.72;6230163;28;126525;-61
2021/05/12 09:31:17;;;;;;;;;9.40;9.00;;;;;34.43;23.41;97746.84;6251278;27;127014;-60
2021/05/12 09:34:20;;;;;;;;;10.00;9.00;;;;;34.42;22.06;97748.06;6256046;27;125733;-61
2021/05/12 09:37:28;;;;;;;;;8.00;8.00;;;;;34.38;22.14;97738.06;6260068;27;127410;-61
2021/05/12 09:40:33;;;;;;;;;9.00;8.00;;;;;34.42;22.82;97728.47;6261257;27;124796;-61
2021/05/12 09:43:40;;;;;;;;;8.00;8.00;;;;;34.61;23.10;97727.16;6257908;27;124984;-61
2021/05/12 09:46:43;;;;;;;;;9.00;8.00;;;;;34.74;22.62;97731.13;6260889;27;124547;-60
2021/05/12 09:49:46;;;;;;;;;8.00;8.00;;;;;34.73;21.76;97732.34;6260342;27;123913;-61
2021/05/12 09:52:51;;;;;;;;;10.00;9.00;;;;;34.72;22.53;97728.72;6257634;27;125808;-61
2021/05/12 09:55:54;;;;;;;;;9.00;9.00;;;;;34.67;21.33;97731.13;6256634;27;125803;-61
2021/05/12 09:58:57;;;;;;;;;8.00;8.00;;;;;34.64;21.59;97726.34;6253264;27;126057;-61
2021/05/12 10:02:02;;;;;;;;;7.60;7.60;;;;;34.66;22.18;97721.13;6255791;27;125305;-61
2021/05/12 10:05:06;;;;;;;;;8.60;8.00;;;;;34.77;22.33;97716.31;6239785;27;125254;-61
2021/05/12 10:08:20;;;;;;;;;7.20;7.20;;;;;34.92;22.80;97717.00;6249616;27;126518;-61
2021/05/12 10:11:24;;;;;;;;;9.00;9.00;;;;;35.01;22.20;97717.31;6241355;27;124519;-61
2021/05/12 10:14:27;;;;;;;;;11.00;10.00;;;;;35.18;22.23;97716.44;6237671;27;125335;-61
2021/05/12 10:17:32;;;;;;;;;8.00;8.00;;;;;35.28;22.09;97709.16;6258532;27;125980;-61
2021/05/12 10:20:36;;;;;;;;;11.00;10.00;;;;;35.35;22.16;97709.06;6256954;27;124819;-61
2021/05/12 10:23:38;;;;;;;;;7.00;7.00;;;;;35.12;21.62;97684.44;6228524;28;126312;-61
2021/05/12 10:26:43;;;;;;;;;12.00;10.00;;;;;35.34;22.94;97710.28;6227829;28;125235;-62
2021/05/12 10:29:49;;;;;;;;;9.00;8.00;;;;;35.40;21.55;97703.81;6247519;27;126142;-61
2021/05/12 10:32:54;;;;;;;;;10.40;10.00;;;;;35.28;22.14;97707.16;6256934;27;126228;-62
2021/05/12 10:36:09;;;;;;;;;7.80;7.80;;;;;35.42;22.21;97690.19;6236594;27;126275;-61
2021/05/12 10:39:13;;;;;;;;;9.00;9.00;;;;;35.52;22.07;97689.31;6257733;27;125842;-61
2021/05/12 10:42:49;;;;;;;;;9.25;9.00;;;;;35.73;22.01;97684.69;6241101;27;126426;-61
2021/05/12 10:46:02;;;;;;;;;8.00;8.00;;;;;35.69;20.08;97684.72;6258858;27;124620;-61
2021/05/12 10:49:07;;;;;;;;;7.25;6.50;;;;;35.95;20.94;97677.63;6259606;27;125982;-61
2021/05/12 10:52:10;;;;;;;;;9.00;8.00;;;;;36.15;21.00;97673.00;6238306;27;124834;-61
2021/05/12 10:55:13;;;;;;;;;8.20;8.20;;;;;36.35;21.11;97664.72;6222780;27;125348;-61
2021/05/12 10:58:17;;;;;;;;;6.60;6.60;;;;;36.56;20.42;97672.81;6239719;27;124755;-61
2021/05/12 11:01:25;;;;;;;;;7.00;6.80;;;;;36.83;19.93;97664.44;6241120;27;122802;-61
2021/05/12 11:04:28;;;;;;;;;7.00;7.00;;;;;37.03;19.75;97668.13;6256088;27;126044;-61
2021/05/12 11:07:33;;;;;;;;;8.00;7.00;;;;;36.79;18.27;97647.66;6251236;27;125000;-61
2021/05/12 11:10:49;;;;;;;;;5.60;5.60;;;;;36.87;17.71;97654.75;6250006;27;124435;-61
2021/05/12 11:14:21;;;;;;;;;7.00;7.00;;;;;36.92;18.38;97652.66;6245622;27;124893;-62
2021/05/12 11:17:47;;;;;;;;;7.00;6.00;;;;;36.72;19.30;97647.75;6251811;27;124615;-61
2021/05/12 11:21:23;;;;;;;;;8.00;7.00;;;;;36.96;19.26;97656.19;6236883;27;124242;-62
2021/05/12 11:24:26;;;;;;;;;6.00;6.00;;;;;37.19;19.14;97637.34;6256137;27;125623;-60
2021/05/12 11:27:48;;;;;;;;;6.00;6.00;;;;;37.11;17.79;97638.72;6222375;27;125765;-60
2021/05/12 11:34:18;;;;;;;;;7.00;7.00;;;;;37.20;19.10;97633.31;6255567;27;126049;-62
2021/05/12 11:37:24;;;;;;;;;8.00;7.00;;;;;37.20;19.30;97627.72;6257397;27;125813;-62
2021/05/12 11:40:30;;;;;;;;;7.00;7.00;;;;;37.45;20.02;97618.81;6251620;27;126132;-60
2021/05/12 11:43:37;;;;;;;;;8.75;7.75;;;;;37.50;18.26;97618.31;6250302;27;128639;-60
2021/05/12 11:46:41;;;;;;;;;7.20;7.00;;;;;37.45;19.48;97618.03;6258835;27;124913;-60
2021/05/12 11:49:49;;;;;;;;;6.00;6.00;;;;;36.73;18.95;97606.44;6258497;27;126007;-60
2021/05/12 11:52:53;;;;;;;;;7.00;7.00;;;;;36.73;20.23;97607.22;6259517;27;124577;-60
2021/05/12 11:55:57;;;;;;;;;9.00;8.00;;;;;36.52;19.03;97593.47;6258983;27;124601;-60
2021/05/12 11:59:02;;;;;;;;;6.00;5.80;;;;;36.34;19.67;97582.53;6256571;27;123838;-60
2021/05/12 12:02:08;;;;;;;;;7.00;6.60;;;;;36.30;19.46;97586.63;6239279;27;124830;-61
2021/05/12 12:05:14;;;;;;;;;8.00;8.00;;;;;36.29;20.11;97585.81;6259364;27;126059;-60
2021/05/12 12:08:21;;;;;;;;;8.00;8.00;;;;;36.38;20.53;97580.47;6259053;27;124582;-61
2021/05/12 12:11:30;;;;;;;;;9.60;9.00;;;;;36.43;20.38;97582.00;6259096;27;124779;-60
2021/05/12 12:14:34;;;;;;;;;6.40;6.00;;;;;36.58;20.06;97568.53;6246389;27;126073;-61
2021/05/12 12:17:37;;;;;;;;;9.00;8.40;;;;;36.60;20.27;97552.06;6257974;27;125786;-61
2021/05/12 12:20:40;;;;;;;;;7.00;7.00;;;;;36.77;20.05;97559.41;6257929;27;126549;-61
2021/05/12 12:23:43;;;;;;;;;6.00;6.00;;;;;36.62;19.26;97566.50;6258783;27;126283;-60
2021/05/12 12:26:52;;;;;;;;;6.00;6.00;;;;;36.41;19.72;97554.34;6240155;27;124664;-61
2021/05/12 12:30:00;;;;;;;;;8.00;8.00;;;;;36.17;20.40;97547.09;6244132;27;125293;-61
2021/05/12 12:33:03;;;;;;;;;7.00;6.00;;;;;36.33;20.44;97552.09;6262615;27;126047;-61
2021/05/12 12:36:08;;;;;;;;;8.40;8.00;;;;;36.39;20.60;97553.19;6262622;27;126488;-61
2021/05/12 12:39:12;;;;;;;;;7.80;7.00;;;;;36.57;21.55;97542.47;6261768;27;124825;-61
2021/05/12 12:42:19;;;;;;;;;7.00;7.00;;;;;36.67;20.91;97530.28;6262635;27;125915;-61
2021/05/12 12:45:27;;;;;;;;;7.40;7.00;;;;;36.84;20.43;97537.63;6263144;27;124798;-61
2021/05/12 12:48:30;;;;;;;;;8.00;8.00;;;;;36.76;20.12;97538.16;6252054;27;126000;-61
2021/05/12 12:51:37;;;;;;;;;8.00;8.00;;;;;36.52;20.19;97540.16;6262578;27;125206;-61
2021/05/12 12:54:50;;;;;;;;;7.00;7.00;;;;;36.57;20.67;97538.88;6243495;27;126069;-60
2021/05/12 12:57:55;;;;;;;;;8.00;8.00;;;;;36.53;20.50;97529.72;6244391;27;124814;-61
2021/05/12 13:00:58;;;;;;;;;7.00;6.00;;;;;36.76;19.61;97519.31;6262142;27;125924;-61
2021/05/12 13:04:17;;;;;;;;;7.00;6.00;;;;;36.69;19.62;97515.84;6259310;27;126840;-60
2021/05/12 13:07:20;;;;;;;;;7.75;7.00;;;;;36.46;19.54;97516.56;6244741;27;125353;-61
2021/05/12 13:10:35;;;;;;;;;8.00;8.00;;;;;36.67;20.31;97509.84;6260581;27;126949;-62
2021/05/12 13:13:42;;;;;;;;;7.20;7.20;;;;;36.77;20.22;97509.66;6258141;27;126130;-63
2021/05/12 13:16:45;;;;;;;;;8.60;8.60;;;;;36.97;21.12;97508.91;6258111;27;126479;-61
2021/05/12 13:20:07;;;;;;;;;5.00;5.00;;;;;36.97;19.79;97509.69;6250136;27;126640;-61
2021/05/12 13:23:13;;;;;;;;;6.00;6.00;;;;;37.03;19.57;97505.19;6259159;27;124651;-61
2021/05/12 13:26:22;;;;;;;;;8.00;7.00;;;;;36.78;19.33;97494.41;6262584;27;123849;-61
2021/05/12 13:29:25;;;;;;;;;5.00;5.00;;;;;36.46;17.98;97502.53;6262356;27;124245;-62
2021/05/12 13:32:28;;;;;;;;;5.60;4.00;;;;;36.05;17.41;97497.97;6261974;27;124991;-60
2021/05/12 13:35:31;;;;;;;;;5.00;5.00;;;;;35.79;17.89;97498.75;6262220;27;125380;-60
2021/05/12 13:38:34;;;;;;;;;5.60;5.00;;;;;35.76;18.10;97494.00;6261369;27;126138;-60
2021/05/12 13:41:38;;;;;;;;;4.00;4.00;;;;;35.81;17.40;97478.72;6241043;27;124942;-62
2021/05/12 13:44:41;;;;;;;;;5.20;5.20;;;;;35.91;18.36;97478.56;6260615;27;125930;-60
2021/05/12 13:47:43;;;;;;;;;3.80;3.80;;;;;35.83;17.82;97468.63;6262380;27;126320;-60
2021/05/12 13:50:47;;;;;;;;;5.00;4.80;;;;;35.83;18.89;97465.84;6261063;27;126134;-61
2021/05/12 13:53:55;;;;;;;;;8.50;8.00;;;;;35.53;20.53;97471.47;6255797;27;126457;-61
2021/05/12 13:57:02;;;;;;;;;8.60;7.40;;;;;35.29;21.55;97476.16;6253883;27;126620;-60
2021/05/12 14:00:18;;;;;;;;;7.50;7.00;;;;;35.08;21.93;97471.59;6259812;27;124426;-60
2021/05/12 14:03:20;;;;;;;;;8.00;7.00;;;;;34.86;21.62;97458.22;6234087;27;126528;-60
2021/05/12 14:06:28;;;;;;;;;7.00;7.00;;;;;34.90;22.08;97465.38;6261695;27;126482;-60
2021/05/12 14:09:35;;;;;;;;;7.00;7.00;;;;;34.82;21.37;97455.47;6243881;27;125956;-61
2021/05/12 14:12:43;;;;;;;;;9.00;7.60;;;;;34.87;21.76;97454.22;6259954;27;125980;-61
2021/05/12 14:19:09;;;;;;;;;8.00;7.00;;;;;34.47;21.77;97450.19;6237889;27;125900;-61
2021/05/12 14:22:12;;;;;;;;;7.00;7.00;;;;;34.42;22.12;97459.84;6259004;27;125265;-61
2021/05/12 14:25:16;;;;;;;;;7.00;6.40;;;;;34.27;21.74;97445.19;6240962;27;125170;-61
2021/05/12 14:28:28;;;;;;;;;7.20;7.00;;;;;34.11;22.12;97436.47;6259128;27;126960;-60
2021/05/12 14:31:31;;;;;;;;;6.00;6.00;;;;;33.94;22.44;97435.44;6256491;27;125527;-61
2021/05/12 14:34:34;;;;;;;;;6.25;6.00;;;;;33.75;22.02;97441.56;6257605;27;126464;-61
2021/05/12 14:37:37;;;;;;;;;6.60;6.00;;;;;33.49;22.43;97442.88;6257376;27;125259;-61
2021/05/12 14:40:39;;;;;;;;;6.00;6.00;;;;;33.20;22.55;97421.88;6248106;27;124820;-61
2021/05/12 14:43:43;;;;;;;;;6.00;6.00;;;;;32.97;22.91;97438.31;6257356;27;126096;-61
2021/05/12 14:46:46;;;;;;;;;8.20;7.00;;;;;32.89;23.16;97442.34;6258153;27;124981;-61
2021/05/12 14:49:51;;;;;;;;;6.00;6.00;;;;;32.75;23.35;97437.56;6259515;27;126113;-61
2021/05/12 14:52:55;;;;;;;;;8.00;6.00;;;;;32.64;23.64;97437.63;6256859;27;124924;-61
2021/05/12 14:56:15;;;;;;;;;7.00;5.40;;;;;32.58;23.57;97421.66;6234157;27;123889;-60
2021/05/12 14:59:45;;;;;;;;;8.00;7.00;;;;;32.45;23.92;97424.03;6236967;27;125976;-61
2021/05/12 15:02:52;;;;;;;;;8.00;7.00;;;;;32.28;23.99;97424.88;6245741;27;124804;-62
2021/05/12 15:06:11;;;;;;;;;7.00;7.00;;;;;32.22;23.80;97429.25;6237776;27;96767;-61
2021/05/12 15:09:14;;;;;;;;;6.00;5.00;;;;;31.70;24.09;97419.66;6254264;27;124816;-62
2021/05/12 15:12:17;;;;;;;;;8.00;7.40;;;;;31.79;24.49;97418.06;6256976;27;124840;-61
2021/05/12 15:15:20;;;;;;;;;7.00;7.00;;;;;31.88;24.87;97414.09;6245290;27;126178;-61
2021/05/12 15:18:23;;;;;;;;;7.80;6.40;;;;;31.71;24.06;97402.56;6258656;27;125053;-61
2021/05/12 15:21:26;;;;;;;;;6.20;6.00;;;;;31.79;24.46;97408.91;6241075;27;125338;-61
2021/05/12 15:24:29;;;;;;;;;7.80;6.80;;;;;31.81;24.74;97406.53;6258451;27;126353;-61
2021/05/12 15:27:31;;;;;;;;;6.40;5.80;;;;;31.80;24.59;97402.16;6253789;27;125163;-61
2021/05/12 15:30:36;;;;;;;;;6.20;6.00;;;;;31.55;24.30;97398.50;6238747;27;125251;-61
2021/05/12 15:33:39;;;;;;;;;7.00;6.00;;;;;31.39;24.91;97404.44;6255964;27;126094;-62
2021/05/12 15:36:43;;;;;;;;;6.60;6.60;;;;;31.20;24.96;97413.94;6254738;27;124939;-61
2021/05/12 15:39:46;;;;;;;;;6.00;6.00;;;;;31.11;24.77;97421.06;6227604;27;122844;-61
2021/05/12 15:42:48;;;;;;;;;6.00;5.80;;;;;30.91;24.87;97407.44;6249864;27;126839;-61
2021/05/12 15:45:52;;;;;;;;;6.20;6.20;;;;;30.63;24.61;97389.81;6255254;27;127057;-61
2021/05/12 15:48:55;;;;;;;;;7.00;7.00;;;;;30.65;24.59;97412.47;6256158;27;124770;-62
2021/05/12 15:51:57;;;;;;;;;6.40;6.00;;;;;30.62;24.53;97408.50;6236994;27;126554;-60
2021/05/12 15:55:01;;;;;;;;;6.00;5.00;;;;;30.42;24.57;97374.56;6257287;27;125994;-62
2021/05/12 15:58:03;;;;;;;;;5.50;5.50;;;;;30.54;24.00;97399.28;6223460;27;123537;-62
2021/05/12 16:01:07;;;;;;;;;6.40;6.00;;;;;30.51;24.07;97399.28;6256355;27;126256;-60
2021/05/12 16:04:10;;;;;;;;;5.00;5.00;;;;;30.50;24.28;97400.47;6238643;27;125100;-61
2021/05/12 16:07:14;;;;;;;;;6.60;6.60;;;;;30.38;23.90;97390.44;6257688;27;126186;-60
2021/05/12 16:10:17;;;;;;;;;6.50;6.00;;;;;30.47;23.80;97404.81;6224217;27;125097;-60
2021/05/12 16:13:20;;;;;;;;;6.00;6.00;;;;;30.55;24.08;97392.53;6257625;27;125751;-61
2021/05/12 16:16:24;;;;;;;;;6.00;6.00;;;;;30.37;24.19;97383.28;6228576;27;125792;-61
2021/05/12 16:19:29;;;;;;;;;5.00;4.00;;;;;30.41;23.77;97392.44;6238929;27;125418;-61
2021/05/12 16:22:32;;;;;;;;;5.20;5.20;;;;;30.32;23.88;97392.00;6249726;27;123900;-61
2021/05/12 16:25:35;;;;;;;;;5.40;5.40;;;;;30.26;23.62;97395.50;6251940;27;127507;-61
2021/05/12 16:28:38;;;;;;;;;5.00;5.00;;;;;30.31;24.01;97379.25;6240387;27;127062;-61
2021/05/12 16:31:41;;;;;;;;;5.40;5.00;;;;;30.32;24.24;97388.41;6253533;27;126968;-61
2021/05/12 16:34:45;;;;;;;;;6.00;6.00;;;;;30.25;23.81;97393.94;6220707;27;124030;-61
2021/05/12 16:37:48;;;;;;;;;5.75;5.00;;;;;30.36;23.69;97383.66;6249875;27;126448;-61
2021/05/12 16:40:51;;;;;;;;;6.00;6.00;;;;;30.37;24.05;97379.69;6219201;27;126180;-61
2021/05/12 16:43:54;;;;;;;;;4.20;4.20;;;;;30.11;23.59;97389.06;6240001;27;126479;-61
2021/05/12 16:46:57;;;;;;;;;4.75;4.75;;;;;30.12;24.01;97391.47;6238596;27;125200;-61
2021/05/12 16:50:02;;;;;;;;;6.00;5.00;;;;;30.00;23.68;97386.22;6254835;27;124801;-61
2021/05/12 16:53:08;;;;;;;;;5.80;5.00;;;;;29.97;24.07;97384.19;6222512;27;123625;-61
2021/05/12 16:56:11;;;;;;;;;5.00;5.00;;;;;30.05;23.79;97391.41;6256819;27;125274;-60
2021/05/12 16:59:13;;;;;;;;;5.00;5.00;;;;;30.05;24.15;97388.63;6256803;27;126296;-61
2021/05/12 17:02:17;;;;;;;;;5.00;4.00;;;;;29.99;23.92;97394.94;6237592;27;126531;-61
2021/05/12 17:05:20;;;;;;;;;5.00;4.60;;;;;29.98;23.78;97387.78;6257337;27;126940;-61
2021/05/12 17:08:24;;;;;;;;;6.60;6.00;;;;;29.73;24.16;97362.53;6257223;27;125308;-61
2021/05/12 17:11:31;;;;;;;;;5.00;5.00;;;;;29.74;24.28;97377.22;6255326;27;124727;-61
2021/05/12 17:14:34;;;;;;;;;4.33;4.00;;;;;29.67;24.46;97375.16;6244620;27;124244;-61
2021/05/12 17:17:38;;;;;;;;;6.00;6.00;;;;;29.71;24.41;97371.25;6254899;27;126148;-61
2021/05/12 17:20:41;;;;;;;;;6.50;6.00;;;;;29.57;24.44;97381.44;6255803;27;125226;-61
2021/05/12 17:23:44;;;;;;;;;5.00;5.00;;;;;29.58;24.94;97383.03;6241173;27;124243;-61
2021/05/12 17:26:46;;;;;;;;;6.00;6.00;;;;;29.53;25.09;97380.59;6260517;27;125109;-61
2021/05/12 17:29:49;;;;;;;;;5.60;4.60;;;;;29.33;25.02;97387.53;6241498;27;125470;-61
2021/05/12 17:32:54;;;;;;;;;6.00;6.00;;;;;29.39;25.02;97377.69;6261391;27;125406;-61
2021/05/12 17:35:56;;;;;;;;;5.00;4.40;;;;;29.20;25.63;97389.75;6242994;27;125005;-61
2021/05/12 17:38:59;;;;;;;;;5.00;5.00;;;;;28.99;25.54;97357.00;6261322;27;126232;-61
2021/05/12 17:42:02;;;;;;;;;5.00;5.00;;;;;28.96;25.98;97365.31;6262140;27;126069;-61
2021/05/12 17:45:07;;;;;;;;;5.00;5.00;;;;;29.03;26.15;97371.72;6259737;27;124766;-61
2021/05/12 17:48:10;;;;;;;;;6.20;5.00;;;;;29.09;26.06;97377.72;6233874;27;126134;-62
2021/05/12 17:51:15;;;;;;;;;6.00;6.00;;;;;29.02;25.69;97377.66;6251019;27;126353;-61
2021/05/12 17:54:18;;;;;;;;;6.00;5.00;;;;;28.80;26.24;97376.59;6256929;27;124706;-60
2021/05/12 17:57:21;;;;;;;;;7.00;7.00;;;;;28.91;26.40;97391.41;6237370;27;123485;-60
2021/05/12 18:00:27;;;;;;;;;5.50;5.50;;;;;28.83;25.88;97389.72;6234154;27;125693;-61
2021/05/12 18:03:31;;;;;;;;;6.00;5.00;;;;;28.73;26.08;97395.94;6259477;27;126453;-61
2021/05/12 18:06:36;;;;;;;;;4.20;4.20;;;;;28.67;25.75;97389.88;6226459;27;124386;-60
2021/05/12 18:09:39;;;;;;;;;5.75;4.00;;;;;28.58;26.19;97380.25;6238886;27;123880;-60
2021/05/12 18:13:02;;;;;;;;;7.00;5.00;;;;;28.38;26.24;97387.91;6232744;27;126116;-60
2021/05/12 18:19:28;;;;;;;;;4.00;4.00;;;;;28.27;26.24;97395.25;6249634;27;126360;-60
2021/05/12 18:22:31;;;;;;;;;6.00;6.00;;;;;28.14;26.16;97386.38;6254505;27;126607;-60
2021/05/12 18:25:34;;;;;;;;;8.00;6.00;;;;;27.95;26.49;97378.13;6251520;27;126811;-60
2021/05/12 18:28:36;;;;;;;;;7.00;5.00;;;;;28.14;26.57;97397.44;6252987;27;126601;-61
2021/05/12 18:31:39;;;;;;;;;5.60;5.60;;;;;28.06;26.78;97401.22;6258671;27;125092;-60
2021/05/12 18:34:46;;;;;;;;;9.00;8.00;;;;;27.99;26.63;97403.91;6260051;27;125145;-61
2021/05/12 18:37:51;;;;;;;;;5.80;5.80;;;;;27.91;26.55;97408.53;6257684;27;124841;-60
2021/05/12 18:40:54;;;;;;;;;7.25;6.25;;;;;27.84;26.88;97416.72;6255378;27;125506;-61
2021/05/12 18:44:00;;;;;;;;;6.00;6.00;;;;;27.82;26.93;97413.50;6254648;27;124443;-61
2021/05/12 18:47:06;;;;;;;;;7.00;6.75;;;;;27.75;27.47;97418.94;6251394;27;124793;-61
2021/05/12 18:50:10;;;;;;;;;7.00;7.00;;;;;27.72;27.31;97419.66;6254626;27;125575;-61
2021/05/12 18:53:13;;;;;;;;;7.60;7.40;;;;;27.72;27.55;97419.66;6256593;27;126218;-61
2021/05/12 18:56:16;;;;;;;;;6.00;5.40;;;;;27.66;27.84;97417.59;6251942;27;124668;-61
2021/05/12 18:59:19;;;;;;;;;9.60;7.00;;;;;27.62;27.51;97420.28;6243154;27;125135;-61
2021/05/12 19:02:21;;;;;;;;;7.00;6.00;;;;;27.63;27.66;97418.31;6239033;27;127058;-61
2021/05/12 19:05:32;;;;;;;;;5.60;5.60;;;;;27.46;27.68;97428.69;6243768;27;126723;-62
2021/05/12 19:08:40;;;;;;;;;8.00;7.00;;;;;27.51;27.88;97431.16;6248697;27;126073;-61
2021/05/12 19:11:47;;;;;;;;;7.00;6.00;;;;;27.45;27.97;97429.84;6243295;27;126493;-62
2021/05/12 19:14:56;;;;;;;;;6.40;6.40;;;;;27.38;28.25;97431.66;6251058;27;125882;-62
2021/05/12 19:18:00;;;;;;;;;6.33;6.00;;;;;27.20;28.55;97436.06;6259832;27;125926;-62